Time;durP1;ratioP1;P1;durP2;ratioP2;P2;SDS_P1;SDS_P2;PMS_P1;PMS_P2;Temp;Humidity;BMP_temperature;BMP_pressure;BME280_temperature;BME280_humidity;BME280_pressure;Samples;Min_cycle;Max_cycle;Signal;HPM_P1;HPM_P2
2022/09/20 00:01:28;;;;;;;4.10;1.13;;;12.20;99.90;;;;;;4991672;28;20258;-77
2022/09/20 00:03:56;;;;;;;3.33;1.10;;;12.20;99.90;;;;;;4992527;28;20223;-77
2022/09/20 00:06:25;;;;;;;2.90;0.67;;;12.20;99.90;;;;;;4992486;28;20200;-78
2022/09/20 00:08:53;;;;;;;3.53;0.90;;;12.20;99.90;;;;;;4991416;28;20208;-77
2022/09/20 00:11:22;;;;;;;3.70;0.83;;;12.20;99.90;;;;;;4992724;28;20199;-78
2022/09/20 00:13:50;;;;;;;2.33;0.90;;;12.20;99.90;;;;;;4991753;28;20623;-78
2022/09/20 00:16:21;;;;;;;4.63;1.27;;;12.20;99.90;;;;;;4991856;28;20204;-77
2022/09/20 00:18:49;;;;;;;1.90;0.90;;;12.20;99.90;;;;;;4992236;28;20208;-77
2022/09/20 00:21:17;;;;;;;4.87;0.70;;;12.20;99.90;;;;;;4992380;28;20223;-77
2022/09/20 00:23:45;;;;;;;4.23;0.97;;;12.20;99.90;;;;;;4991487;28;20208;-77
2022/09/20 00:26:13;;;;;;;1.47;0.80;;;12.20;99.90;;;;;;4992127;28;20671;-78
2022/09/20 00:28:42;;;;;;;3.00;0.93;;;12.20;99.90;;;;;;4992190;28;20247;-79
2022/09/20 00:31:10;;;;;;;1.70;0.87;;;12.20;99.90;;;;;;4994842;28;20594;-77
2022/09/20 00:36:23;;;;;;;1.73;0.70;;;12.10;99.90;;;;;;4994821;28;20918;-78
2022/09/20 00:38:55;;;;;;;4.60;2.07;;;12.10;99.90;;;;;;4995249;28;20619;-78
2022/09/20 00:41:22;;;;;;;2.27;1.13;;;12.10;99.90;;;;;;4995547;28;20223;-78
2022/09/20 00:43:49;;;;;;;2.23;0.93;;;12.10;99.90;;;;;;4994527;28;20236;-79
2022/09/20 00:46:23;;;;;;;2.43;1.07;;;12.10;99.90;;;;;;4995723;28;20656;-78
2022/09/20 00:48:55;;;;;;;3.43;1.10;;;12.10;99.90;;;;;;4995249;28;20200;-78
2022/09/20 00:51:27;;;;;;;2.03;0.93;;;12.10;99.90;;;;;;4994542;28;20197;-78
2022/09/20 00:53:56;;;;;;;3.57;1.10;;;12.10;99.90;;;;;;4995302;28;20192;-78
2022/09/20 00:56:27;;;;;;;3.50;1.30;;;12.10;99.90;;;;;;4995275;28;20290;-78
2022/09/20 00:59:00;;;;;;;3.27;1.10;;;12.10;99.90;;;;;;4995085;28;20495;-79
2022/09/20 01:01:27;;;;;;;4.03;0.97;;;12.10;99.90;;;;;;4995446;28;20208;-78
2022/09/20 01:03:55;;;;;;;2.17;1.00;;;12.10;99.90;;;;;;4995165;28;20291;-78
2022/09/20 01:06:22;;;;;;;2.20;1.40;;;12.10;99.90;;;;;;4994751;28;20200;-78
2022/09/20 01:08:51;;;;;;;4.30;1.10;;;12.10;99.90;;;;;;4995300;28;20467;-78
2022/09/20 01:11:18;;;;;;;2.73;0.90;;;12.10;99.90;;;;;;4994687;28;20208;-77
2022/09/20 01:13:45;;;;;;;3.33;0.93;;;12.10;99.90;;;;;;4994704;28;20204;-77
2022/09/20 01:16:14;;;;;;;1.43;0.90;;;12.10;99.90;;;;;;4994607;28;20635;-78
2022/09/20 01:18:42;;;;;;;1.80;0.90;;;12.00;99.90;;;;;;4994136;28;20199;-78
2022/09/20 01:21:11;;;;;;;2.93;0.83;;;12.00;99.90;;;;;;4995088;28;20222;-79
2022/09/20 01:23:46;;;;;;;3.87;1.67;;;11.90;99.90;;;;;;4994923;28;20203;-78
2022/09/20 01:26:52;;;;;;;2.83;0.83;;;11.90;99.90;;;;;;4994269;28;20242;-78
2022/09/20 01:29:31;;;;;;;2.33;0.70;;;11.90;99.90;;;;;;4994423;28;20231;-78
2022/09/20 01:32:03;;;;;;;2.60;1.20;;;11.90;99.90;;;;;;4994699;28;20199;-79
2022/09/20 01:34:33;;;;;;;4.53;1.03;;;11.80;99.90;;;;;;4994153;28;20804;-78
2022/09/20 01:37:10;;;;;;;1.27;0.80;;;11.80;99.90;;;;;;4994512;28;20200;-78
2022/09/20 01:39:46;;;;;;;1.93;0.83;;;11.70;99.90;;;;;;4994274;28;20187;-78
2022/09/20 01:42:14;;;;;;;2.00;0.83;;;11.70;99.90;;;;;;4993734;28;20215;-78
2022/09/20 01:44:57;;;;;;;1.80;1.10;;;11.60;99.90;;;;;;4994433;28;20290;-78
2022/09/20 01:47:35;;;;;;;3.17;1.10;;;11.60;99.90;;;;;;4993489;28;20207;-78
2022/09/20 01:50:12;;;;;;;3.93;1.33;;;11.50;99.90;;;;;;4994001;28;20199;-79
2022/09/20 01:53:22;;;;;;;3.33;1.07;;;11.50;99.90;;;;;;4993906;28;20184;-79
2022/09/20 01:56:24;;;;;;;2.80;1.20;;;11.50;99.90;;;;;;4974445;28;20200;-78
2022/09/20 01:59:08;;;;;;;3.00;1.23;;;11.40;99.90;;;;;;4994261;28;20297;-78
2022/09/20 02:02:00;;;;;;;2.70;0.80;;;11.40;99.90;;;;;;4993520;28;20224;-78
2022/09/20 02:05:06;;;;;;;3.87;0.93;;;11.40;99.90;;;;;;4994055;28;20543;-78
2022/09/20 02:08:09;;;;;;;1.97;0.80;;;11.40;99.90;;;;;;4985306;28;20206;-78
2022/09/20 02:10:56;;;;;;;2.37;1.03;;;11.40;99.90;;;;;;4968339;28;20227;-78
2022/09/20 02:13:30;;;;;;;1.53;1.10;;;11.40;99.90;;;;;;4993542;28;20204;-78
2022/09/20 02:16:27;;;;;;;2.93;1.03;;;11.40;99.90;;;;;;4993762;28;20218;-78
2022/09/20 02:19:35;;;;;;;2.70;1.30;;;11.40;99.90;;;;;;4993759;28;20235;-78
2022/09/20 02:22:15;;;;;;;1.13;0.73;;;11.40;99.90;;;;;;4993504;28;20212;-78
2022/09/20 02:24:50;;;;;;;2.20;1.03;;;11.40;99.90;;;;;;4993915;28;20195;-78
2022/09/20 02:27:24;;;;;;;2.33;1.00;;;11.40;99.90;;;;;;4993707;28;20671;-78
2022/09/20 02:30:08;;;;;;;3.97;1.00;;;11.40;99.90;;;;;;4992740;28;20230;-78
2022/09/20 02:32:51;;;;;;;2.07;0.90;;;11.40;99.90;;;;;;4993326;28;20198;-78
2022/09/20 02:35:35;;;;;;;1.87;0.87;;;11.50;99.90;;;;;;4993465;28;20595;-78
2022/09/20 02:38:16;;;;;;;1.13;0.70;;;11.50;99.90;;;;;;4992846;28;20222;-78
2022/09/20 02:41:12;;;;;;;1.63;1.00;;;11.50;99.90;;;;;;4993773;28;20207;-78
2022/09/20 02:43:47;;;;;;;2.57;0.90;;;11.50;99.90;;;;;;4992495;28;20234;-78
2022/09/20 02:46:22;;;;;;;1.17;0.80;;;11.50;99.90;;;;;;4992909;28;20800;-79
2022/09/20 02:48:57;;;;;;;1.93;1.10;;;11.50;99.90;;;;;;4993232;28;20179;-78
2022/09/20 02:51:33;;;;;;;2.50;1.00;;;11.50;99.90;;;;;;5010266;28;20210;-78
2022/09/20 02:54:12;;;;;;;1.73;0.80;;;11.60;99.90;;;;;;5011736;28;20218;-78
2022/09/20 02:56:47;;;;;;;3.43;1.40;;;11.60;99.90;;;;;;5012968;28;20226;-78
2022/09/20 02:59:26;;;;;;;1.73;1.00;;;11.60;99.90;;;;;;5011404;28;20210;-78
2022/09/20 03:02:07;;;;;;;1.43;0.70;;;11.60;99.90;;;;;;5012636;28;20207;-79
2022/09/20 03:04:45;;;;;;;3.07;0.87;;;11.60;99.90;;;;;;4998404;28;20200;-79
2022/09/20 03:07:22;;;;;;;3.77;0.90;;;11.60;99.90;;;;;;4993124;28;20196;-79
2022/09/20 03:09:58;;;;;;;3.27;1.00;;;11.50;99.90;;;;;;4992336;28;20290;-79
2022/09/20 03:12:35;;;;;;;3.73;1.10;;;11.50;99.90;;;;;;4992113;28;20592;-79
2022/09/20 03:15:16;;;;;;;1.80;0.83;;;11.50;99.90;;;;;;4993211;28;20191;-79
2022/09/20 03:17:49;;;;;;;1.50;0.70;;;11.50;99.90;;;;;;4991833;28;20203;-79
2022/09/20 03:20:34;;;;;;;1.53;0.80;;;11.50;99.90;;;;;;4992836;28;20286;-79
2022/09/20 03:23:15;;;;;;;3.27;1.10;;;11.40;99.90;;;;;;4992974;28;20212;-79
2022/09/20 03:25:56;;;;;;;3.33;0.87;;;11.40;99.90;;;;;;4992490;28;20210;-79
2022/09/20 03:28:42;;;;;;;2.83;1.20;;;11.40;99.90;;;;;;4992569;28;20231;-77
2022/09/20 03:31:19;;;;;;;2.07;0.80;;;11.40;99.90;;;;;;4992089;28;20862;-80
2022/09/20 03:33:58;;;;;;;3.97;0.90;;;11.40;99.90;;;;;;4992520;28;20259;-79
2022/09/20 03:36:55;;;;;;;1.60;0.70;;;11.40;99.90;;;;;;4992728;28;20212;-79
2022/09/20 03:39:45;;;;;;;1.57;0.60;;;11.30;99.90;;;;;;4992271;28;20779;-79
2022/09/20 03:42:16;;;;;;;1.73;0.80;;;11.30;99.90;;;;;;4990997;28;20243;-78
2022/09/20 03:45:13;;;;;;;3.33;0.87;;;11.30;99.90;;;;;;4992497;28;20240;-79
2022/09/20 03:48:05;;;;;;;2.77;1.10;;;11.30;99.90;;;;;;4982086;28;20519;-78
2022/09/20 03:50:46;;;;;;;1.77;0.70;;;11.30;99.90;;;;;;4993903;28;20184;-79
2022/09/20 03:53:38;;;;;;;2.27;0.93;;;11.20;99.90;;;;;;4997755;28;20203;-79
2022/09/20 03:56:44;;;;;;;1.90;0.60;;;11.20;99.90;;;;;;4995836;28;20231;-78
2022/09/20 03:59:42;;;;;;;2.40;0.80;;;11.20;99.90;;;;;;4955076;29;20643;-78
2022/09/20 04:02:37;;;;;;;1.70;0.70;;;11.10;99.90;;;;;;4991296;28;20224;-78
2022/09/20 04:05:09;;;;;;;2.23;0.77;;;11.10;99.90;;;;;;4998415;28;20196;-78
2022/09/20 04:07:43;;;;;;;1.53;0.70;;;11.10;99.90;;;;;;4999231;28;20200;-79
2022/09/20 04:10:24;;;;;;;4.63;1.33;;;11.10;99.90;;;;;;4997462;28;20200;-79
2022/09/20 04:13:05;;;;;;;1.60;0.77;;;11.00;99.90;;;;;;4996358;28;20196;-78
2022/09/20 04:15:41;;;;;;;2.27;0.90;;;11.00;99.90;;;;;;4995833;28;20204;-79
2022/09/20 04:18:18;;;;;;;3.67;0.83;;;11.00;99.90;;;;;;4996204;28;20208;-78
2022/09/20 04:20:50;;;;;;;1.43;0.80;;;11.00;99.90;;;;;;4995926;28;20213;-78
2022/09/20 04:23:39;;;;;;;1.57;1.00;;;11.00;99.90;;;;;;4995757;28;20216;-79
2022/09/20 04:26:07;;;;;;;4.30;0.70;;;10.90;99.90;;;;;;4995749;28;20222;-79
2022/09/20 04:28:40;;;;;;;1.03;0.77;;;10.90;99.90;;;;;;4994789;28;20223;-79
2022/09/20 04:31:18;;;;;;;2.00;0.80;;;10.90;99.90;;;;;;4996146;28;20247;-79
2022/09/20 04:33:50;;;;;;;1.17;0.70;;;10.90;99.90;;;;;;4995700;28;20283;-79
2022/09/20 04:36:54;;;;;;;2.40;0.90;;;10.80;99.90;;;;;;4994840;28;20200;-78
2022/09/20 04:39:32;;;;;;;2.87;1.00;;;10.80;99.90;;;;;;4995774;28;20254;-79
2022/09/20 04:42:28;;;;;;;1.63;0.50;;;10.70;99.90;;;;;;4995284;28;20270;-79
2022/09/20 04:45:23;;;;;;;3.63;1.00;;;10.70;99.90;;;;;;4995352;28;20236;-78
2022/09/20 04:48:26;;;;;;;2.00;0.80;;;10.60;99.90;;;;;;4995378;28;20200;-79
2022/09/20 04:51:35;;;;;;;3.23;1.00;;;10.50;99.90;;;;;;4994360;28;20619;-78
2022/09/20 04:54:43;;;;;;;1.97;0.73;;;10.50;99.90;;;;;;4991678;28;20211;-79
2022/09/20 04:57:38;;;;;;;1.33;0.80;;;10.50;99.90;;;;;;4994103;28;20511;-78
2022/09/20 05:00:09;;;;;;;4.47;0.90;;;10.40;99.90;;;;;;4990422;28;20296;-79
2022/09/20 05:03:21;;;;;;;1.60;0.77;;;10.40;99.90;;;;;;4995181;28;20730;-79
2022/09/20 05:06:21;;;;;;;4.10;0.93;;;10.40;99.90;;;;;;4982784;28;20227;-80
2022/09/20 05:09:03;;;;;;;2.73;1.10;;;10.30;99.90;;;;;;4994636;28;20211;-77
2022/09/20 05:12:09;;;;;;;1.77;0.80;;;10.20;99.90;;;;;;4994644;28;20195;-80
2022/09/20 05:15:09;;;;;;;2.07;0.70;;;10.20;99.90;;;;;;4973056;28;20210;-79
2022/09/20 05:17:50;;;;;;;3.43;0.80;;;10.20;99.90;;;;;;4993541;28;20211;-78
2022/09/20 05:20:50;;;;;;;2.73;0.97;;;10.20;99.90;;;;;;4994907;28;20200;-79
2022/09/20 05:23:43;;;;;;;3.13;1.23;;;10.20;99.90;;;;;;4991300;28;20228;-79
2022/09/20 05:26:15;;;;;;;2.57;1.10;;;10.20;99.90;;;;;;4994144;28;20271;-79
2022/09/20 05:28:54;;;;;;;3.40;0.90;;;10.10;99.90;;;;;;4994648;28;20556;-79
2022/09/20 05:31:30;;;;;;;6.20;1.70;;;10.10;99.90;;;;;;4994246;28;20208;-79
2022/09/20 05:34:04;;;;;;;2.83;1.10;;;10.20;99.90;;;;;;4994088;28;20203;-79
2022/09/20 05:36:42;;;;;;;1.57;0.73;;;10.20;99.90;;;;;;4994197;28;20211;-78
2022/09/20 05:39:26;;;;;;;3.63;1.33;;;10.20;99.90;;;;;;4993577;28;20196;-78
2022/09/20 05:41:58;;;;;;;1.33;0.53;;;10.20;99.90;;;;;;4994013;28;20216;-79
2022/09/20 05:44:31;;;;;;;1.27;0.60;;;10.20;99.90;;;;;;4994241;28;20240;-79
2022/09/20 05:47:11;;;;;;;2.70;0.80;;;10.20;99.90;;;;;;4993510;28;20210;-79
2022/09/20 05:49:51;;;;;;;4.80;0.90;;;10.20;99.90;;;;;;4993562;28;20287;-79
2022/09/20 05:52:38;;;;;;;2.53;0.80;;;10.20;99.90;;;;;;4994112;28;20211;-78
2022/09/20 05:55:34;;;;;;;2.20;0.90;;;10.20;99.90;;;;;;4993837;28;20199;-78
2022/09/20 05:58:16;;;;;;;3.20;1.17;;;10.20;99.90;;;;;;4993937;28;20204;-79
2022/09/20 06:00:49;;;;;;;2.07;0.80;;;10.20;99.90;;;;;;4992140;28;20207;-79
2022/09/20 06:03:29;;;;;;;2.30;1.10;;;10.20;99.90;;;;;;5024402;28;20214;-78
2022/09/20 06:06:02;;;;;;;2.37;1.23;;;10.20;99.90;;;;;;5033146;28;20195;-78
2022/09/20 06:08:51;;;;;;;2.23;1.00;;;10.20;99.90;;;;;;5021643;28;20212;-78
2022/09/20 06:11:40;;;;;;;2.40;1.20;;;10.30;99.90;;;;;;4993904;28;20283;-79
2022/09/20 06:14:20;;;;;;;1.80;0.90;;;10.30;99.90;;;;;;4992866;28;20582;-78
2022/09/20 06:16:55;;;;;;;3.00;1.10;;;10.40;99.90;;;;;;5007480;28;20499;-78
2022/09/20 06:19:34;;;;;;;2.33;0.90;;;10.40;99.90;;;;;;5013352;28;20205;-79
2022/09/20 06:22:05;;;;;;;2.17;1.07;;;10.50;99.90;;;;;;5003890;28;20207;-78
2022/09/20 06:24:41;;;;;;;2.63;1.07;;;10.50;99.90;;;;;;4993298;28;20204;-78
2022/09/20 06:27:15;;;;;;;3.77;1.20;;;10.50;99.90;;;;;;4992479;28;20207;-78
2022/09/20 06:29:47;;;;;;;2.63;1.37;;;10.60;99.90;;;;;;5001800;28;20230;-79
2022/09/20 06:32:17;;;;;;;2.53;1.00;;;10.60;99.90;;;;;;5029731;28;20197;-78
2022/09/20 06:34:44;;;;;;;1.47;1.00;;;10.70;99.90;;;;;;5012643;28;20702;-79
2022/09/20 06:43:18;;;;;;;10.03;2.10;;;10.90;99.90;;;;;;4991774;28;20219;-79
2022/09/20 06:45:45;;;;;;;3.87;1.43;;;11.00;99.90;;;;;;4993292;28;20531;-78
2022/09/20 06:48:14;;;;;;;3.90;1.43;;;11.10;99.90;;;;;;4993078;28;20215;-78
2022/09/20 06:50:44;;;;;;;3.10;0.90;;;11.20;99.90;;;;;;4992558;28;20196;-78
2022/09/20 06:53:15;;;;;;;3.00;1.43;;;11.30;99.90;;;;;;4993208;28;20196;-76
2022/09/20 06:55:43;;;;;;;2.20;1.17;;;11.40;99.90;;;;;;4993088;28;20234;-77
2022/09/20 06:58:10;;;;;;;5.97;1.83;;;11.40;99.90;;;;;;4992396;28;20289;-77
2022/09/20 07:00:39;;;;;;;6.00;1.67;;;11.50;99.90;;;;;;4992683;28;20622;-76
2022/09/20 07:03:07;;;;;;;6.60;1.80;;;11.60;99.90;;;;;;5006700;28;20254;-76
2022/09/20 07:05:35;;;;;;;5.27;1.43;;;11.60;99.90;;;;;;5011980;28;20199;-77
2022/09/20 07:08:02;;;;;;;5.40;1.13;;;11.70;99.90;;;;;;5012165;28;20195;-77
2022/09/20 07:10:29;;;;;;;3.87;1.47;;;11.80;99.90;;;;;;4992264;28;20206;-77
2022/09/20 07:12:58;;;;;;;4.60;1.10;;;11.90;99.90;;;;;;4992582;28;20196;-77
2022/09/20 07:15:25;;;;;;;5.83;2.13;;;12.00;99.90;;;;;;4993054;28;20246;-77
2022/09/20 07:17:53;;;;;;;5.20;1.50;;;12.00;99.90;;;;;;4992228;28;20565;-77
2022/09/20 07:20:20;;;;;;;3.93;1.33;;;12.10;99.90;;;;;;5004639;28;20210;-76
2022/09/20 07:22:47;;;;;;;4.87;1.60;;;12.20;99.90;;;;;;5013462;28;20598;-77
2022/09/20 07:25:16;;;;;;;4.40;1.17;;;12.30;99.90;;;;;;5023927;28;20222;-77
2022/09/20 07:27:45;;;;;;;3.47;0.90;;;12.30;99.90;;;;;;5019983;28;20276;-77
2022/09/20 07:30:14;;;;;;;2.10;0.93;;;12.40;99.90;;;;;;5022399;28;20858;-78
2022/09/20 07:32:41;;;;;;;2.37;0.93;;;12.50;99.90;;;;;;5020499;28;20214;-77
2022/09/20 07:35:10;;;;;;;4.33;1.20;;;12.60;99.90;;;;;;5015190;28;20628;-78
2022/09/20 07:37:40;;;;;;;3.80;1.10;;;12.70;99.90;;;;;;5010391;28;20211;-77
2022/09/20 07:40:09;;;;;;;3.30;1.40;;;12.70;99.90;;;;;;5020590;28;20211;-78
2022/09/20 07:42:36;;;;;;;5.13;1.40;;;12.80;99.90;;;;;;5024803;28;20321;-78
2022/09/20 07:45:03;;;;;;;2.40;1.17;;;12.90;99.90;;;;;;5027721;28;20241;-78
2022/09/20 07:47:31;;;;;;;2.97;0.90;;;12.90;99.90;;;;;;5015581;28;20219;-77
2022/09/20 07:49:58;;;;;;;4.83;1.17;;;12.90;99.90;;;;;;5032799;28;20577;-77
2022/09/20 07:52:27;;;;;;;3.93;1.10;;;13.00;99.90;;;;;;5032216;28;20570;-77
2022/09/20 07:54:53;;;;;;;3.40;0.97;;;13.10;99.90;;;;;;5009669;28;20290;-78
2022/09/20 07:57:20;;;;;;;4.33;1.10;;;13.10;99.90;;;;;;4996447;28;20200;-78
2022/09/20 07:59:47;;;;;;;2.97;1.17;;;13.20;99.90;;;;;;4996101;28;20290;-78
2022/09/20 08:02:15;;;;;;;3.37;1.20;;;13.20;99.90;;;;;;4996129;28;20207;-76
2022/09/20 08:04:43;;;;;;;3.60;1.37;;;13.20;99.90;;;;;;4996261;28;20525;-77
2022/09/20 08:07:11;;;;;;;3.03;0.90;;;13.30;99.90;;;;;;4995416;28;20191;-77
2022/09/20 08:09:40;;;;;;;4.10;1.27;;;13.30;99.90;;;;;;5012097;28;20239;-79
2022/09/20 08:12:07;;;;;;;3.47;1.03;;;13.30;99.90;;;;;;5019612;28;20269;-79
2022/09/20 08:14:34;;;;;;;5.13;1.20;;;13.30;99.90;;;;;;5027577;28;20203;-79
2022/09/20 08:17:01;;;;;;;3.93;1.00;;;13.30;99.90;;;;;;5026124;28;20202;-78
2022/09/20 08:19:29;;;;;;;3.53;1.33;;;13.30;99.90;;;;;;5034985;28;20260;-78
2022/09/20 08:21:56;;;;;;;5.93;1.30;;;13.30;99.90;;;;;;5020774;28;20203;-79
2022/09/20 08:24:25;;;;;;;2.30;0.77;;;13.40;99.90;;;;;;5015289;28;20215;-78
2022/09/20 08:26:53;;;;;;;3.63;0.90;;;13.40;99.90;;;;;;5015200;28;20199;-77
2022/09/20 08:29:20;;;;;;;5.40;1.10;;;13.40;99.90;;;;;;5014540;28;20253;-78
2022/09/20 08:31:47;;;;;;;4.63;1.00;;;13.30;99.90;;;;;;5017847;28;20217;-78
2022/09/20 08:34:15;;;;;;;3.67;1.10;;;13.30;99.90;;;;;;4995645;28;20196;-78
2022/09/20 08:36:45;;;;;;;3.57;1.17;;;13.30;99.90;;;;;;4994255;28;20207;-78
2022/09/20 08:39:13;;;;;;;3.07;1.07;;;13.20;99.90;;;;;;5030559;28;20206;-78
2022/09/20 08:41:45;;;;;;;5.57;1.50;;;13.20;99.90;;;;;;5023142;28;20325;-79
2022/09/20 08:44:18;;;;;;;2.17;0.73;;;13.20;99.90;;;;;;5034150;28;20508;-78
2022/09/20 08:46:49;;;;;;;3.90;1.07;;;13.20;99.90;;;;;;4996471;28;20200;-78
2022/09/20 08:49:25;;;;;;;2.93;1.40;;;13.20;99.90;;;;;;5024900;28;20601;-78
2022/09/20 08:51:53;;;;;;;3.70;1.30;;;13.30;99.90;;;;;;4994556;28;20196;-78
2022/09/20 08:54:21;;;;;;;4.00;1.03;;;13.30;99.90;;;;;;5010444;28;20203;-78
2022/09/20 08:56:49;;;;;;;3.43;1.07;;;13.30;99.90;;;;;;5010708;28;20231;-78
2022/09/20 08:59:20;;;;;;;6.03;1.80;;;13.40;99.90;;;;;;4994890;28;20204;-78
2022/09/20 09:01:48;;;;;;;2.70;1.37;;;13.40;99.90;;;;;;4994664;28;20256;-78
2022/09/20 09:04:17;;;;;;;2.70;1.10;;;13.40;99.90;;;;;;4993781;28;20231;-78
2022/09/20 09:06:45;;;;;;;4.53;1.30;;;13.50;99.90;;;;;;4995356;28;20204;-78
2022/09/20 09:09:18;;;;;;;5.83;1.20;;;13.60;99.90;;;;;;4995055;28;20286;-76
2022/09/20 09:11:46;;;;;;;3.20;0.83;;;13.70;99.90;;;;;;4994225;28;20217;-76
2022/09/20 09:17:21;;;;;;;2.00;0.70;;;13.80;99.90;;;;;;4991470;28;20200;-78
2022/09/20 09:19:50;;;;;;;1.73;0.70;;;14.00;99.90;;;;;;4993033;28;20208;-78
2022/09/20 09:22:23;;;;;;;1.00;0.80;;;14.20;99.90;;;;;;4993201;28;20287;-79
2022/09/20 09:25:18;;;;;;;4.10;1.30;;;14.40;99.90;;;;;;4993254;28;20621;-79
2022/09/20 09:27:54;;;;;;;4.73;1.33;;;14.50;99.90;;;;;;4994564;28;20200;-78
2022/09/20 09:30:26;;;;;;;6.00;1.20;;;14.60;99.90;;;;;;4993610;28;20507;-78
2022/09/20 09:32:53;;;;;;;2.20;1.00;;;14.70;99.90;;;;;;5021470;28;20253;-77
2022/09/20 09:35:30;;;;;;;5.83;1.00;;;14.80;99.90;;;;;;5033654;28;20207;-77
2022/09/20 09:37:58;;;;;;;4.38;0.90;;;14.90;99.90;;;;;;5033204;28;20241;-78
2022/09/20 09:40:27;;;;;;;4.43;1.33;;;15.10;99.90;;;;;;5007880;28;20536;-78
2022/09/20 09:42:55;;;;;;;5.53;1.27;;;15.10;99.90;;;;;;5032218;28;20832;-78
2022/09/20 09:45:29;;;;;;;2.40;0.80;;;15.10;99.90;;;;;;5032512;28;20260;-78
2022/09/20 09:47:58;;;;;;;3.83;1.17;;;15.20;99.90;;;;;;5013827;28;20333;-79
2022/09/20 09:50:27;;;;;;;2.67;0.90;;;15.20;99.90;;;;;;4994647;28;20212;-80
2022/09/20 09:53:05;;;;;;;4.32;0.80;;;15.20;99.90;;;;;;4993466;28;20192;-80
2022/09/20 09:55:55;;;;;;;4.30;0.97;;;15.30;99.90;;;;;;4993323;28;20214;-79
2022/09/20 09:58:35;;;;;;;4.60;1.07;;;15.40;99.90;;;;;;4992722;28;20196;-76
2022/09/20 10:01:10;;;;;;;2.87;0.90;;;15.50;99.90;;;;;;4993342;28;20198;-77
2022/09/20 10:03:53;;;;;;;2.30;0.80;;;15.60;99.90;;;;;;4993125;28;20631;-77
2022/09/20 10:06:26;;;;;;;1.73;0.70;;;15.70;99.90;;;;;;4992812;28;20202;-76
2022/09/20 10:09:08;;;;;;;4.63;1.13;;;15.80;99.90;;;;;;4993522;28;20195;-76
2022/09/20 10:11:48;;;;;;;3.60;0.82;;;15.90;99.90;;;;;;4993086;28;20203;-76
2022/09/20 10:14:28;;;;;;;3.03;0.90;;;16.00;99.90;;;;;;4992821;28;20481;-77
2022/09/20 10:17:15;;;;;;;4.07;1.00;;;16.10;99.90;;;;;;5001304;28;20203;-76
2022/09/20 10:19:56;;;;;;;4.43;0.90;;;16.10;99.90;;;;;;5012953;28;20222;-76
2022/09/20 10:22:27;;;;;;;2.35;0.77;;;16.10;99.90;;;;;;5012912;28;20199;-77
2022/09/20 10:25:02;;;;;;;3.20;0.75;;;16.00;99.90;;;;;;5001139;28;20239;-77
2022/09/20 10:27:40;;;;;;;5.97;1.10;;;16.00;99.90;;;;;;4992329;28;20195;-77
2022/09/20 10:30:11;;;;;;;2.47;0.80;;;16.00;99.90;;;;;;4992731;28;20190;-78
2022/09/20 10:32:59;;;;;;;2.38;0.90;;;16.00;94.90;;;;;;4993170;28;20192;-77
2022/09/20 10:35:32;;;;;;;4.10;1.08;;;16.00;91.90;;;;;;4992149;28;20250;-78
2022/09/20 10:38:14;;;;;;;4.47;0.85;;;16.00;78.20;;;;;;4992990;28;20194;-76
2022/09/20 10:43:51;;;;;;;3.50;1.00;;;15.90;1.00;;;;;;4992719;28;20296;-81
2022/09/20 10:46:27;;;;;;;5.78;0.90;;;15.80;1.00;;;;;;4992649;28;20204;-80
2022/09/20 10:49:03;;;;;;;1.70;0.93;;;15.70;99.90;;;;;;4992664;28;20199;-77
2022/09/20 10:51:42;;;;;;;6.27;1.40;;;15.70;1.00;;;;;;4992874;28;20215;-80
2022/09/20 10:54:20;;;;;;;2.47;1.00;;;15.70;99.90;;;;;;4992985;28;20196;-79
2022/09/20 10:56:49;;;;;;;4.83;1.00;;;15.70;1.00;;;;;;4991919;28;20602;-80
2022/09/20 10:59:35;;;;;;;4.47;0.68;;;15.80;99.90;;;;;;5002131;28;20199;-79
2022/09/20 11:02:23;;;;;;;2.70;0.80;;;16.00;99.90;;;;;;5022773;28;20204;-80
2022/09/20 11:05:28;;;;;;;3.20;1.00;;;16.20;99.90;;;;;;5018857;28;20207;-80
2022/09/20 11:08:04;;;;;;;2.83;1.37;;;16.30;99.90;;;;;;5011709;28;20617;-79
2022/09/20 11:10:36;;;;;;;4.97;1.60;;;16.50;1.00;;;;;;5015781;28;20293;-82
2022/09/20 11:13:08;;;;;;;3.35;1.52;;;16.40;99.90;;;;;;5007113;28;20202;-80
2022/09/20 11:15:40;;;;;;;4.03;2.55;;;16.50;1.00;;;;;;5020396;28;20197;-78
2022/09/20 11:18:21;;;;;;;4.28;2.13;;;16.50;1.00;;;;;;5030286;28;20638;-80
2022/09/20 11:20:56;;;;;;;5.05;2.55;;;16.50;1.00;;;;;;5017498;28;20203;-82
2022/09/20 11:23:28;;;;;;;6.15;2.72;;;16.50;36.80;;;;;;5019259;28;20242;-79
2022/09/20 11:25:58;;;;;;;6.20;1.50;;;16.40;1.00;;;;;;5007413;28;20297;-81
2022/09/20 11:28:29;;;;;;;4.10;1.77;;;16.30;99.90;;;;;;5021639;28;20802;-79
2022/09/20 11:31:02;;;;;;;2.03;0.93;;;16.20;1.00;;;;;;5022879;28;20203;-80
2022/09/20 11:33:32;;;;;;;2.88;0.70;;;16.20;1.00;;;;;;5021556;28;20198;-80
2022/09/20 11:36:03;;;;;;;1.92;0.68;;;16.20;1.00;;;;;;5021464;28;20326;-78
2022/09/20 11:38:36;;;;;;;3.80;1.13;;;16.20;1.00;;;;;;5019445;28;20213;-80
2022/09/20 11:41:08;;;;;;;4.90;1.08;;;16.20;1.00;;;;;;5027067;28;20242;-81
2022/09/20 11:43:39;;;;;;;3.97;0.80;;;16.30;1.00;;;;;;5019391;28;20611;-90
2022/09/20 11:46:09;;;;;;;4.22;1.23;;;16.30;1.00;;;;;;5019194;28;20207;-79
2022/09/20 11:48:43;;;;;;;1.42;0.63;;;16.40;1.00;;;;;;5023781;28;20198;-80
2022/09/20 11:51:30;;;;;;;2.63;0.73;;;16.30;99.90;;;;;;5023806;28;20485;-80
2022/09/20 11:54:27;;;;;;;1.48;0.63;;;16.30;1.00;;;;;;5022754;28;20196;-80
2022/09/20 11:56:56;;;;;;;3.10;0.98;;;16.30;1.00;;;;;;5004525;28;20672;-82
2022/09/20 11:59:30;;;;;;;3.35;0.90;;;16.30;81.00;;;;;;5027122;28;20207;-81
2022/09/20 12:02:00;;;;;;;2.08;0.80;;;16.30;1.00;;;;;;5023284;28;20310;-80
2022/09/20 12:04:30;;;;;;;3.17;1.10;;;16.40;65.10;;;;;;5019191;28;20245;-80
2022/09/20 12:07:03;;;;;;;4.28;1.23;;;16.50;48.90;;;;;;5029740;28;20230;-80
2022/09/20 12:09:34;;;;;;;4.00;0.80;;;16.50;1.00;;;;;;5021158;28;20792;-80
2022/09/20 12:12:15;;;;;;;3.17;1.00;;;16.60;1.00;;;;;;5019065;28;20282;-81
2022/09/20 12:14:52;;;;;;;5.40;0.93;;;16.60;1.00;;;;;;5014037;28;20214;-80
2022/09/20 12:17:54;;;;;;;3.00;0.70;;;16.70;99.90;;;;;;5019500;28;20199;-83
2022/09/20 12:20:59;;;;;;;3.47;1.00;;;16.60;99.90;;;;;;5001936;28;20202;-81
2022/09/20 12:24:08;;;;;;;3.10;0.77;;;16.60;99.90;;;;;;4992684;28;20204;-81
2022/09/20 12:26:41;;;;;;;2.47;1.02;;;16.50;99.90;;;;;;4993724;28;20203;-82
2022/09/20 12:29:56;;;;;;;2.00;0.60;;;16.60;1.00;;;;;;4996251;28;20232;-81
2022/09/20 12:32:47;;;;;;;5.20;0.95;;;16.70;1.00;;;;;;4996720;28;20274;-80
2022/09/20 12:35:59;;;;;;;2.47;0.77;;;16.90;1.00;;;;;;5010003;28;20203;-84
2022/09/20 12:38:30;;;;;;;4.25;0.90;;;16.90;1.00;;;;;;5013062;28;20207;-83
2022/09/20 12:41:04;;;;;;;6.38;0.82;;;17.00;99.90;;;;;;4995655;28;20683;-81
2022/09/20 12:43:34;;;;;;;3.55;0.82;;;17.10;1.00;;;;;;4995776;28;20207;-82
2022/09/20 12:46:01;;;;;;;3.83;0.93;;;17.30;99.90;;;;;;4995630;28;20228;-81
2022/09/20 12:48:35;;;;;;;2.65;0.73;;;17.50;1.00;;;;;;4994797;28;20291;-81
2022/09/20 12:54:01;;;;;;;2.22;0.70;;;17.70;1.00;;;;;;4996074;28;20186;-81
2022/09/20 12:56:29;;;;;;;6.05;0.70;;;17.70;99.90;;;;;;4995696;28;20204;-81
2022/09/20 12:58:59;;;;;;;6.53;0.90;;;17.70;99.90;;;;;;4995285;28;20192;-80
2022/09/20 13:01:35;;;;;;;2.40;0.80;;;17.70;86.90;;;;;;4995554;28;20200;-81
2022/09/20 13:04:39;;;;;;;0.85;0.63;;;17.60;1.00;;;;;;4995313;28;20204;-81
2022/09/20 13:07:46;;;;;;;2.65;0.80;;;17.60;1.00;;;;;;4994923;28;20255;-78
2022/09/20 13:10:26;;;;;;;4.45;0.70;;;17.60;99.90;;;;;;4994834;28;20200;-79
2022/09/20 13:13:01;;;;;;;3.67;0.90;;;17.60;1.00;;;;;;4994320;28;20647;-82
2022/09/20 13:15:28;;;;;;;4.35;0.98;;;17.60;99.90;;;;;;4994746;28;20195;-82
2022/09/20 13:17:59;;;;;;;1.70;0.80;;;17.70;1.00;;;;;;4994098;28;20208;-77
2022/09/20 13:20:30;;;;;;;2.70;1.00;;;17.70;99.90;;;;;;4994489;28;20204;-77
2022/09/20 13:22:59;;;;;;;3.15;0.98;;;17.70;1.00;;;;;;4993835;28;20468;-78
2022/09/20 13:25:27;;;;;;;3.58;1.40;;;17.70;99.90;;;;;;4994278;28;20314;-78
2022/09/20 13:28:01;;;;;;;2.33;0.70;;;17.60;1.00;;;;;;4994539;28;20226;-77
2022/09/20 13:30:31;;;;;;;2.35;0.68;;;17.50;1.00;;;;;;4993767;28;20199;-79
2022/09/20 13:33:15;;;;;;;2.85;0.77;;;17.40;99.90;;;;;;4994776;28;20263;-78
2022/09/20 13:35:45;;;;;;;8.30;4.90;;;17.50;1.00;;;;;;4994528;28;20196;-82
2022/09/20 13:38:14;;;;;;;6.03;2.10;;;17.70;99.90;;;;;;4992950;28;20199;-79
2022/09/20 13:40:43;;;;;;;3.33;0.88;;;17.80;1.00;;;;;;4994739;28;20219;-82
2022/09/20 13:43:23;;;;;;;2.10;0.90;;;18.00;99.90;;;;;;4993065;28;20200;-78
2022/09/20 13:45:54;;;;;;;3.15;1.00;;;18.00;1.00;;;;;;4974036;28;20219;-79
2022/09/20 13:48:24;;;;;;;3.60;1.00;;;18.00;99.90;;;;;;4974304;28;20586;-77
2022/09/20 13:50:51;;;;;;;10.35;1.95;;;18.10;1.00;;;;;;4974961;28;20292;-81
2022/09/20 13:53:19;;;;;;;6.25;1.20;;;18.10;1.00;;;;;;4974043;28;20207;-78
2022/09/20 13:55:47;;;;;;;4.00;1.67;;;18.10;1.00;;;;;;4975157;28;20196;-81